createdAt,value
2023-02-14T00:00:47.100Z,53.47
2023-02-14T00:03:13.489Z,52.74
2023-02-14T00:05:39.923Z,54.72
2023-02-14T00:08:06.301Z,55.19
2023-02-14T00:10:32.720Z,54.36
2023-02-14T00:12:59.119Z,54.03
2023-02-14T00:15:25.555Z,53.48
2023-02-14T00:17:51.987Z,53.96
2023-02-14T00:20:18.389Z,53.87
2023-02-14T00:22:44.802Z,53.57
2023-02-14T00:25:11.196Z,53.19
2023-02-14T00:27:37.598Z,53.89
2023-02-14T00:30:04.022Z,53.06
2023-02-14T00:32:30.480Z,52.62
2023-02-14T00:34:56.869Z,52.07
2023-02-14T00:37:23.237Z,52.97
2023-02-14T00:39:49.625Z,53.10
2023-02-14T00:42:16.010Z,53.17
2023-02-14T00:44:42.389Z,53.53
2023-02-14T00:47:08.780Z,51.75
2023-02-14T00:49:37.895Z,53.18
2023-02-14T00:52:05.382Z,52.60
2023-02-14T00:54:31.755Z,54.15
2023-02-14T00:56:58.184Z,55.56
2023-02-14T00:59:24.622Z,53.64
2023-02-14T01:01:51.000Z,55.74
2023-02-14T01:04:17.391Z,56.66
2023-02-14T01:06:43.778Z,53.49
2023-02-14T01:09:10.170Z,55.02
2023-02-14T01:11:36.552Z,55.66
2023-02-14T01:14:04.065Z,56.24
2023-02-14T01:16:30.486Z,58.12
2023-02-14T01:18:56.945Z,57.04
2023-02-14T01:21:23.351Z,58.29
2023-02-14T01:23:49.731Z,57.23
2023-02-14T01:26:16.169Z,56.77
2023-02-14T01:28:42.588Z,57.51
2023-02-14T01:31:08.993Z,56.55
2023-02-14T01:33:35.389Z,57.01
2023-02-14T01:36:01.752Z,57.02
2023-02-14T01:38:28.133Z,56.95
2023-02-14T01:40:54.599Z,57.72
2023-02-14T01:43:21.015Z,61.55
2023-02-14T01:45:47.405Z,60.44
2023-02-14T01:48:13.792Z,57.66
2023-02-14T01:50:40.189Z,57.44
2023-02-14T01:53:06.622Z,54.54
2023-02-14T01:55:33.022Z,54.35
2023-02-14T01:57:59.409Z,56.33
2023-02-14T02:00:25.831Z,57.14
2023-02-14T02:02:52.217Z,55.62
2023-02-14T02:05:18.595Z,56.03
2023-02-14T02:07:44.990Z,56.14
2023-02-14T02:10:11.368Z,54.71
2023-02-14T02:12:37.754Z,55.20
2023-02-14T02:15:04.125Z,56.54
2023-02-14T02:17:30.554Z,56.00
2023-02-14T02:19:56.923Z,55.40
2023-02-14T02:22:23.318Z,56.58
2023-02-14T02:24:49.790Z,56.19
2023-02-14T02:27:16.206Z,57.69
2023-02-14T02:29:42.616Z,57.28
2023-02-14T02:32:09.115Z,56.22
2023-02-14T02:34:35.567Z,56.40
2023-02-14T02:37:01.936Z,53.56
2023-02-14T02:39:28.316Z,51.22
2023-02-14T02:41:54.678Z,49.91
2023-02-14T02:44:21.031Z,47.22
2023-02-14T02:46:47.424Z,46.96
2023-02-14T02:49:16.989Z,48.26
2023-02-14T02:51:43.405Z,48.65
2023-02-14T02:54:09.809Z,51.69
2023-02-14T02:56:36.214Z,50.64
2023-02-14T02:59:02.633Z,53.38
2023-02-14T03:01:29.064Z,55.08
2023-02-14T03:03:55.508Z,55.68
2023-02-14T03:06:21.878Z,58.00
2023-02-14T03:08:48.293Z,56.56
2023-02-14T03:11:14.704Z,56.39
2023-02-14T03:13:41.090Z,56.20
2023-02-14T03:16:07.523Z,53.70
2023-02-14T03:18:33.934Z,54.23
2023-02-14T03:21:00.601Z,55.31
2023-02-14T03:23:27.211Z,57.12
2023-02-14T03:25:53.582Z,58.68
2023-02-14T03:28:20.037Z,59.07
2023-02-14T03:30:46.512Z,57.82
2023-02-14T03:33:12.965Z,57.66
2023-02-14T03:35:39.352Z,55.94
2023-02-14T03:38:05.735Z,56.00
2023-02-14T03:40:32.182Z,56.40
2023-02-14T03:42:58.573Z,59.31
2023-02-14T03:45:25.049Z,63.49
2023-02-14T03:47:51.442Z,58.23
2023-02-14T03:50:17.911Z,56.11
2023-02-14T03:52:44.325Z,55.86
2023-02-14T03:55:10.815Z,56.08
2023-02-14T03:57:37.310Z,58.44
2023-02-14T04:00:03.685Z,57.88
2023-02-14T04:02:30.090Z,61.47
2023-02-14T04:04:56.458Z,59.28
2023-02-14T04:07:22.848Z,56.96
2023-02-14T04:09:49.235Z,55.61
2023-02-14T04:12:16.932Z,57.65
2023-02-14T04:14:44.641Z,59.37
2023-02-14T04:17:11.036Z,57.55
2023-02-14T04:19:37.471Z,56.54
2023-02-14T04:22:03.886Z,56.31
2023-02-14T04:24:32.669Z,56.56
2023-02-14T04:26:59.096Z,58.00
2023-02-14T04:29:25.494Z,57.99
2023-02-14T04:31:51.979Z,57.93
2023-02-14T04:34:19.853Z,55.81
2023-02-14T04:36:46.248Z,55.61
2023-02-14T04:39:12.629Z,52.85
2023-02-14T04:41:39.042Z,51.29
2023-02-14T04:44:05.440Z,48.56
2023-02-14T04:46:31.884Z,46.84
2023-02-14T04:48:58.332Z,47.00
2023-02-14T04:51:27.306Z,47.50
2023-02-14T04:53:53.934Z,46.30
2023-02-14T04:56:20.326Z,49.22
2023-02-14T04:58:49.052Z,53.41
2023-02-14T05:01:15.485Z,62.02
2023-02-14T05:03:41.974Z,62.83
2023-02-14T05:06:08.341Z,62.93
2023-02-14T05:08:34.760Z,62.79
2023-02-14T05:11:01.373Z,59.27
2023-02-14T05:13:27.871Z,57.17
2023-02-14T05:15:54.421Z,57.82
2023-02-14T05:18:20.824Z,59.11
2023-02-14T05:20:47.179Z,59.61
2023-02-14T05:23:13.734Z,58.01
2023-02-14T05:25:40.211Z,59.33
2023-02-14T05:28:06.676Z,60.78
2023-02-14T05:30:33.182Z,59.46
2023-02-14T05:32:59.624Z,60.37
2023-02-14T05:35:26.040Z,60.49
2023-02-14T05:37:52.437Z,59.41
2023-02-14T05:40:18.827Z,59.15
2023-02-14T05:42:45.211Z,57.15
2023-02-14T05:45:12.994Z,56.80
2023-02-14T05:47:39.384Z,54.90
2023-02-14T05:50:05.766Z,53.52
2023-02-14T05:52:32.166Z,47.86
2023-02-14T05:54:58.572Z,44.38
2023-02-14T05:57:24.981Z,41.60
2023-02-14T05:59:51.394Z,42.34
2023-02-14T06:02:17.864Z,42.75
2023-02-14T06:04:44.324Z,41.66
2023-02-14T06:07:10.726Z,52.99
2023-02-14T06:09:37.135Z,52.69
2023-02-14T06:12:03.627Z,53.61
2023-02-14T06:14:30.050Z,56.68
2023-02-14T06:16:56.534Z,55.47
2023-02-14T06:19:22.986Z,53.27
2023-02-14T06:21:49.359Z,51.24
2023-02-14T06:24:15.738Z,52.89
2023-02-14T06:26:42.142Z,51.84
2023-02-14T06:29:08.531Z,51.60
2023-02-14T06:31:34.993Z,52.55
2023-02-14T06:34:01.447Z,51.38
2023-02-14T06:36:27.841Z,51.03
2023-02-14T06:38:54.202Z,49.93
2023-02-14T06:41:20.570Z,48.46
2023-02-14T06:43:46.967Z,47.98
2023-02-14T06:46:13.337Z,47.60
2023-02-14T06:48:39.728Z,47.29
2023-02-14T06:51:06.103Z,44.33
2023-02-14T06:53:32.483Z,41.56
2023-02-14T06:55:58.889Z,42.68
2023-02-14T06:58:25.286Z,43.41
2023-02-14T07:00:51.671Z,47.18
2023-02-14T07:03:18.024Z,47.76
2023-02-14T07:05:44.421Z,43.50
2023-02-14T07:08:10.800Z,42.91
2023-02-14T07:10:37.208Z,43.52
2023-02-14T07:13:03.591Z,43.01
2023-02-14T07:15:30.068Z,40.82
2023-02-14T07:17:56.473Z,42.38
2023-02-14T07:20:22.859Z,39.99
2023-02-14T07:22:49.289Z,39.75
2023-02-14T07:25:15.715Z,40.15
2023-02-14T07:27:42.175Z,41.72
2023-02-14T07:30:08.645Z,42.14
2023-02-14T07:32:35.095Z,42.00
2023-02-14T07:35:01.472Z,41.24
2023-02-14T07:37:27.854Z,40.72
2023-02-14T07:39:54.338Z,41.01
2023-02-14T07:42:20.706Z,39.04
2023-02-14T07:44:47.088Z,36.69
2023-02-14T07:47:13.450Z,34.03
2023-02-14T07:49:39.867Z,33.80
2023-02-14T07:52:06.243Z,33.89
2023-02-14T07:54:32.605Z,38.02
2023-02-14T07:56:58.994Z,42.95
2023-02-14T07:59:26.131Z,44.00
2023-02-14T08:01:52.680Z,38.78
2023-02-14T08:04:19.127Z,42.93
2023-02-14T08:06:45.518Z,39.25
2023-02-14T08:09:11.933Z,40.83
2023-02-14T08:11:38.357Z,40.95
2023-02-14T08:14:04.783Z,40.32
2023-02-14T08:16:31.254Z,42.17
2023-02-14T08:18:57.672Z,44.19
2023-02-14T08:21:24.060Z,44.66
2023-02-14T08:23:50.442Z,43.20
2023-02-14T08:26:16.854Z,44.56
2023-02-14T08:28:43.220Z,46.06
2023-02-14T08:31:09.629Z,49.14
2023-02-14T08:33:36.023Z,50.65
2023-02-14T08:36:02.431Z,51.42
2023-02-14T08:38:28.806Z,50.29
2023-02-14T08:40:55.176Z,51.01
2023-02-14T08:43:21.546Z,53.08
2023-02-14T08:45:47.937Z,54.08
2023-02-14T08:48:14.339Z,56.76
2023-02-14T08:50:40.740Z,56.45
2023-02-14T08:53:07.142Z,57.42
2023-02-14T08:55:33.531Z,58.61
2023-02-14T08:57:59.954Z,61.10
2023-02-14T09:00:26.423Z,61.44
2023-02-14T09:02:52.840Z,61.64
2023-02-14T09:05:19.203Z,62.56
2023-02-14T09:07:45.594Z,66.16
2023-02-14T09:10:12.087Z,64.69
2023-02-14T09:12:38.478Z,62.62
2023-02-14T09:15:04.880Z,62.67
2023-02-14T09:17:31.305Z,63.09
2023-02-14T09:19:57.719Z,63.36
2023-02-14T09:22:24.113Z,64.17
2023-02-14T09:24:50.516Z,64.31
2023-02-14T09:27:16.894Z,64.06
2023-02-14T09:29:43.321Z,63.99
2023-02-14T09:32:09.771Z,65.61
2023-02-14T09:34:36.195Z,63.57
2023-02-14T09:37:03.216Z,62.13
2023-02-14T09:39:30.698Z,61.75
2023-02-14T09:41:57.083Z,61.56
2023-02-14T09:44:23.493Z,62.77
2023-02-14T09:46:49.893Z,63.41
2023-02-14T09:49:16.443Z,61.91
2023-02-14T09:51:42.877Z,62.41
2023-02-14T09:54:09.284Z,61.94
2023-02-14T09:56:50.385Z,60.39
2023-02-14T09:59:17.561Z,62.20
2023-02-14T10:01:43.941Z,62.82
2023-02-14T10:04:10.303Z,63.75
2023-02-14T10:06:36.729Z,64.39
2023-02-14T10:09:03.141Z,64.25
2023-02-14T10:11:29.499Z,64.22
2023-02-14T10:13:55.877Z,65.06
2023-02-14T10:16:22.372Z,63.68
2023-02-14T10:18:48.816Z,64.69
2023-02-14T10:21:15.246Z,63.46
2023-02-14T10:23:41.663Z,63.41
2023-02-14T10:26:08.079Z,63.21
2023-02-14T10:28:34.496Z,63.85
2023-02-14T10:31:01.288Z,63.33
2023-02-14T10:33:27.883Z,62.95
2023-02-14T10:35:54.250Z,64.39
2023-02-14T10:38:20.645Z,64.22
2023-02-14T10:40:47.027Z,65.20
2023-02-14T10:43:13.435Z,65.05
2023-02-14T10:45:39.855Z,64.85
2023-02-14T10:48:06.287Z,65.14
2023-02-14T10:50:32.703Z,65.18
2023-02-14T10:52:59.099Z,64.49
2023-02-14T10:55:33.031Z,65.95
2023-02-14T10:57:59.483Z,64.16
2023-02-14T11:00:25.865Z,64.57
2023-02-14T11:02:52.249Z,64.72
2023-02-14T11:05:18.674Z,64.95
2023-02-14T11:07:45.091Z,63.12
2023-02-14T11:10:11.483Z,60.66
2023-02-14T11:12:37.915Z,62.99
2023-02-14T11:15:04.386Z,61.47
2023-02-14T11:17:30.770Z,61.86
2023-02-14T11:19:57.194Z,61.58
2023-02-14T11:22:23.585Z,62.41
2023-02-14T11:24:49.967Z,61.75
2023-02-14T11:27:16.377Z,61.67
2023-02-14T11:29:42.736Z,62.00
2023-02-14T11:32:09.170Z,61.83
2023-02-14T11:34:35.568Z,61.71
2023-02-14T11:37:01.954Z,61.56
2023-02-14T11:39:28.352Z,59.93
2023-02-14T11:41:54.746Z,59.02
2023-02-14T11:44:21.150Z,57.90
2023-02-14T11:46:53.073Z,57.23
2023-02-14T11:49:20.112Z,56.84
2023-02-14T11:51:46.491Z,57.32
2023-02-14T11:54:12.910Z,56.06
2023-02-14T11:56:39.299Z,55.32
2023-02-14T11:59:05.849Z,55.85
2023-02-14T12:01:35.103Z,55.51
2023-02-14T12:04:01.554Z,56.31
2023-02-14T12:06:27.931Z,55.98
2023-02-14T12:08:54.302Z,56.44
2023-02-14T12:11:20.728Z,57.00
2023-02-14T12:13:47.109Z,56.55
2023-02-14T12:16:13.473Z,56.66
2023-02-14T12:18:39.867Z,57.49
2023-02-14T12:21:06.353Z,57.05
2023-02-14T12:23:32.775Z,56.39
2023-02-14T12:25:59.184Z,56.51
2023-02-14T12:28:25.569Z,55.80
2023-02-14T12:30:52.019Z,56.55
2023-02-14T12:33:18.472Z,57.56
2023-02-14T12:35:44.844Z,57.18
2023-02-14T12:38:11.230Z,56.43
2023-02-14T12:40:37.599Z,57.33
2023-02-14T12:43:04.049Z,57.82
2023-02-14T12:45:30.441Z,58.86
2023-02-14T12:47:56.844Z,60.24
2023-02-14T12:50:23.206Z,58.78
2023-02-14T12:52:49.570Z,61.00
2023-02-14T12:55:15.992Z,60.98
2023-02-14T12:57:42.375Z,59.98
2023-02-14T13:00:08.766Z,60.28
2023-02-14T13:02:35.207Z,61.25
2023-02-14T13:05:01.654Z,59.96
2023-02-14T13:07:28.061Z,60.17
2023-02-14T13:09:54.638Z,57.04
2023-02-14T13:12:21.010Z,56.00
2023-02-14T13:14:47.378Z,56.72
2023-02-14T13:17:13.734Z,56.47
2023-02-14T13:19:40.103Z,56.38
2023-02-14T13:22:06.473Z,57.45
2023-02-14T13:24:32.874Z,54.39
2023-02-14T13:26:59.271Z,53.62
2023-02-14T13:29:25.647Z,51.63
2023-02-14T13:31:52.157Z,52.41
2023-02-14T13:34:18.554Z,52.58
2023-02-14T13:36:44.946Z,51.28
2023-02-14T13:39:11.365Z,51.29
2023-02-14T13:41:37.749Z,50.41
2023-02-14T13:44:04.156Z,50.14
2023-02-14T13:46:30.624Z,48.92
2023-02-14T13:48:57.129Z,49.14
2023-02-14T13:51:23.506Z,48.87
2023-02-14T13:53:49.878Z,48.88
2023-02-14T13:56:16.320Z,46.68
2023-02-14T13:58:42.752Z,47.91
2023-02-14T14:01:09.196Z,47.23
2023-02-14T14:03:35.748Z,46.98
2023-02-14T14:06:02.616Z,45.08
2023-02-14T14:08:30.582Z,46.49
2023-02-14T14:10:57.104Z,43.84
2023-02-14T14:13:23.525Z,44.77
2023-02-14T14:15:49.944Z,43.85
2023-02-14T14:18:16.339Z,43.49
2023-02-14T14:20:42.709Z,43.79
2023-02-14T14:23:09.093Z,43.51
2023-02-14T14:25:35.469Z,44.01
2023-02-14T14:28:02.105Z,43.90
2023-02-14T14:30:28.557Z,44.82
2023-02-14T14:32:55.067Z,47.79
2023-02-14T14:35:21.509Z,48.95
2023-02-14T14:37:47.922Z,50.68
2023-02-14T14:40:14.309Z,50.70
2023-02-14T14:42:40.739Z,51.73
2023-02-14T14:45:07.123Z,52.87
2023-02-14T14:47:33.494Z,51.58
2023-02-14T14:49:59.903Z,52.17
2023-02-14T14:52:26.298Z,53.05
2023-02-14T14:54:52.722Z,52.90
2023-02-14T14:57:19.135Z,52.87
2023-02-14T14:59:45.526Z,53.17
2023-02-14T15:02:11.894Z,51.35
2023-02-14T15:04:38.311Z,51.88
2023-02-14T15:07:04.755Z,51.87
2023-02-14T15:09:31.161Z,51.05
2023-02-14T15:11:57.521Z,49.75
2023-02-14T15:14:23.919Z,50.32
2023-02-14T15:16:50.314Z,49.21
2023-02-14T15:19:16.731Z,47.71
2023-02-14T15:21:44.698Z,46.85
2023-02-14T15:24:11.212Z,46.08
2023-02-14T15:26:37.603Z,46.66
2023-02-14T15:29:04.033Z,46.37
2023-02-14T15:31:30.555Z,46.76
2023-02-14T15:33:57.029Z,44.21
2023-02-14T15:36:25.597Z,45.24
2023-02-14T15:38:52.007Z,45.51
2023-02-14T15:41:18.425Z,45.37
2023-02-14T15:43:44.801Z,45.80
2023-02-14T15:46:11.205Z,45.35
2023-02-14T15:48:37.636Z,44.88
2023-02-14T15:51:04.050Z,44.89
2023-02-14T15:53:30.420Z,45.12
2023-02-14T15:55:56.802Z,45.65
2023-02-14T15:58:23.204Z,46.50
2023-02-14T16:00:49.594Z,46.10
2023-02-14T16:03:15.995Z,46.16
2023-02-14T16:05:42.399Z,45.34
2023-02-14T16:08:08.836Z,43.82
2023-02-14T16:10:35.237Z,40.73
2023-02-14T16:13:01.616Z,41.29
2023-02-14T16:15:28.035Z,39.80
2023-02-14T16:17:54.427Z,39.27
2023-02-14T16:20:20.813Z,39.16
2023-02-14T16:22:47.210Z,38.45
2023-02-14T16:25:13.602Z,38.24
2023-02-14T16:27:39.989Z,38.58
2023-02-14T16:30:06.473Z,38.76
2023-02-14T16:32:33.043Z,39.38
2023-02-14T16:34:59.550Z,39.62
2023-02-14T16:37:25.926Z,41.20
2023-02-14T16:39:52.308Z,42.38
2023-02-14T16:42:18.681Z,43.31
2023-02-14T16:44:45.054Z,43.59
2023-02-14T16:47:11.448Z,44.31
2023-02-14T16:49:37.826Z,44.32
2023-02-14T16:52:04.215Z,44.27
2023-02-14T16:54:30.633Z,43.33
2023-02-14T16:56:57.062Z,43.84
2023-02-14T16:59:23.458Z,44.76
2023-02-14T17:01:50.141Z,44.18
2023-02-14T17:04:16.577Z,43.93
2023-02-14T17:06:42.960Z,44.01
2023-02-14T17:09:09.398Z,45.27
2023-02-14T17:11:35.803Z,43.44
2023-02-14T17:14:02.221Z,42.99
2023-02-14T17:16:28.608Z,42.32
2023-02-14T17:18:54.986Z,43.33
2023-02-14T17:21:21.384Z,41.70
2023-02-14T17:23:47.840Z,41.01
2023-02-14T17:26:14.283Z,40.21
2023-02-14T17:28:40.806Z,40.21
2023-02-14T17:31:07.604Z,42.07
2023-02-14T17:33:34.321Z,44.14
2023-02-14T17:36:00.753Z,44.70
2023-02-14T17:38:27.174Z,49.78
2023-02-14T17:40:53.563Z,54.26
2023-02-14T17:43:19.988Z,54.55
2023-02-14T17:45:46.398Z,53.05
2023-02-14T17:48:12.776Z,55.00
2023-02-14T17:50:39.174Z,54.72
2023-02-14T17:53:05.581Z,52.21
2023-02-14T17:55:31.989Z,53.66
2023-02-14T17:57:58.368Z,54.23
2023-02-14T18:00:24.797Z,50.94
2023-02-14T18:02:51.214Z,50.09
2023-02-14T18:05:17.635Z,50.60
2023-02-14T18:07:44.054Z,50.17
2023-02-14T18:10:10.471Z,51.50
2023-02-14T18:12:36.942Z,51.54
2023-02-14T18:15:03.333Z,52.54
2023-02-14T18:17:29.690Z,51.29
2023-02-14T18:19:56.131Z,53.13
2023-02-14T18:22:22.498Z,52.43
2023-02-14T18:24:48.889Z,51.83
2023-02-14T18:27:15.276Z,52.85
2023-02-14T18:29:41.660Z,54.32
2023-02-14T18:32:08.096Z,53.11
2023-02-14T18:34:34.527Z,51.90
2023-02-14T18:37:00.906Z,51.90
2023-02-14T18:39:27.294Z,49.54
2023-02-14T18:41:53.781Z,47.48
2023-02-14T18:44:20.208Z,48.93
2023-02-14T18:46:46.568Z,49.10
2023-02-14T18:49:12.972Z,48.09
2023-02-14T18:51:39.400Z,48.59
2023-02-14T18:54:05.871Z,46.42
2023-02-14T18:56:32.245Z,46.54
2023-02-14T18:58:58.654Z,45.56
2023-02-14T19:01:25.129Z,45.79
2023-02-14T19:03:51.549Z,44.86
2023-02-14T19:06:17.961Z,44.39
2023-02-14T19:08:44.352Z,46.17
2023-02-14T19:11:10.795Z,44.63
2023-02-14T19:13:37.185Z,45.04
2023-02-14T19:16:03.589Z,44.19
2023-02-14T19:18:30.039Z,42.49
2023-02-14T19:20:56.421Z,42.26
2023-02-14T19:23:22.848Z,43.01
2023-02-14T19:25:49.379Z,43.19
2023-02-14T19:28:16.236Z,40.49
2023-02-14T19:30:42.649Z,41.80
2023-02-14T19:33:09.049Z,40.51
2023-02-14T19:35:35.434Z,40.71
2023-02-14T19:38:01.819Z,40.38
2023-02-14T19:40:29.063Z,40.38
2023-02-14T19:42:55.460Z,39.86
2023-02-14T19:45:21.859Z,39.68
2023-02-14T19:47:48.406Z,38.30
2023-02-14T19:50:14.840Z,40.45
2023-02-14T19:52:41.332Z,41.41
2023-02-14T19:55:07.733Z,39.94
2023-02-14T19:57:34.121Z,40.89
2023-02-14T20:00:00.580Z,38.75
2023-02-14T20:02:27.011Z,39.16
2023-02-14T20:04:53.487Z,38.85
2023-02-14T20:07:19.880Z,37.00
2023-02-14T20:09:46.252Z,36.43
2023-02-14T20:12:12.656Z,35.37
2023-02-14T20:14:50.824Z,34.45
2023-02-14T20:17:17.501Z,33.88
2023-02-14T20:19:43.879Z,34.33
2023-02-14T20:22:10.280Z,34.06
2023-02-14T20:24:36.660Z,34.68
2023-02-14T20:27:03.073Z,32.76
2023-02-14T20:29:29.485Z,32.17
2023-02-14T20:31:55.934Z,33.25
2023-02-14T20:34:22.381Z,33.09
2023-02-14T20:36:48.819Z,32.90
2023-02-14T20:39:15.213Z,32.36
2023-02-14T20:41:41.605Z,32.00
2023-02-14T20:44:08.039Z,30.99
2023-02-14T20:46:34.475Z,27.19
2023-02-14T20:49:00.870Z,24.95
2023-02-14T20:51:27.284Z,28.34
2023-02-14T20:53:53.680Z,29.07
2023-02-14T20:56:20.109Z,28.70
2023-02-14T20:58:46.504Z,29.76
2023-02-14T21:01:12.941Z,29.64
2023-02-14T21:03:39.399Z,28.67
2023-02-14T21:06:05.795Z,28.26
2023-02-14T21:08:32.197Z,28.47
2023-02-14T21:10:58.820Z,27.57
2023-02-14T21:13:25.324Z,28.00
2023-02-14T21:15:51.734Z,27.53
2023-02-14T21:18:18.122Z,27.33
2023-02-14T21:20:44.549Z,26.53
2023-02-14T21:23:10.923Z,25.75
2023-02-14T21:25:37.389Z,24.94
2023-02-14T21:28:03.775Z,24.92
2023-02-14T21:30:30.299Z,24.96
2023-02-14T21:32:56.699Z,24.04
2023-02-14T21:35:23.073Z,25.17
2023-02-14T21:37:49.478Z,27.20
2023-02-14T21:40:15.850Z,27.27
2023-02-14T21:42:42.261Z,26.84
2023-02-14T21:45:08.626Z,25.98
2023-02-14T21:47:35.052Z,26.16
2023-02-14T21:50:01.426Z,29.89
2023-02-14T21:52:27.804Z,28.94
2023-02-14T21:54:54.175Z,28.25
2023-02-14T21:57:20.529Z,27.97
2023-02-14T21:59:46.925Z,28.87
2023-02-14T22:02:13.317Z,28.12
2023-02-14T22:04:39.733Z,27.58
2023-02-14T22:07:06.113Z,29.80
2023-02-14T22:09:32.558Z,30.52
2023-02-14T22:11:58.932Z,30.61
2023-02-14T22:14:25.333Z,29.63
2023-02-14T22:16:51.746Z,28.45
2023-02-14T22:19:18.148Z,28.11
2023-02-14T22:21:44.563Z,28.35
2023-02-14T22:24:10.923Z,28.07
2023-02-14T22:26:37.317Z,28.21
2023-02-14T22:29:03.737Z,28.41
2023-02-14T22:31:30.220Z,29.57
2023-02-14T22:33:56.656Z,28.94
2023-02-14T22:36:23.064Z,29.47
2023-02-14T22:38:49.505Z,28.67
2023-02-14T22:41:15.878Z,30.30
2023-02-14T22:43:42.261Z,29.70
2023-02-14T22:46:08.660Z,28.76
2023-02-14T22:48:35.045Z,30.11
2023-02-14T22:51:01.428Z,31.23
2023-02-14T22:53:27.859Z,31.63
2023-02-14T22:55:54.250Z,32.47
2023-02-14T22:58:20.670Z,32.48
2023-02-14T23:00:47.100Z,31.88
2023-02-14T23:03:13.498Z,31.31
2023-02-14T23:05:39.891Z,31.18
2023-02-14T23:08:06.244Z,30.61
2023-02-14T23:10:32.806Z,30.04
2023-02-14T23:12:59.181Z,30.55
2023-02-14T23:15:25.549Z,32.19
2023-02-14T23:17:51.943Z,31.20
2023-02-14T23:20:18.300Z,30.09
2023-02-14T23:22:44.709Z,30.33
2023-02-14T23:25:11.139Z,28.99
2023-02-14T23:27:37.553Z,28.96
2023-02-14T23:30:04.013Z,28.01
2023-02-14T23:32:30.427Z,27.55
2023-02-14T23:34:56.928Z,27.12
2023-02-14T23:37:23.305Z,26.64
2023-02-14T23:39:49.744Z,25.86
2023-02-14T23:42:16.156Z,26.02
2023-02-14T23:44:42.566Z,26.52
2023-02-14T23:47:08.953Z,26.57
2023-02-14T23:49:35.329Z,26.01
2023-02-14T23:52:01.751Z,25.97
2023-02-14T23:54:28.126Z,26.79
2023-02-14T23:56:54.523Z,26.39
2023-02-14T23:59:20.907Z,27.07
